createdAt,value
2019-05-30T00:02:02.703Z,18.00
2019-05-30T00:04:31.431Z,18.00
2019-05-30T00:07:00.570Z,18.00
2019-05-30T00:09:29.511Z,18.20
2019-05-30T00:11:58.622Z,18.20
2019-05-30T00:14:27.539Z,17.80
2019-05-30T00:16:56.787Z,17.90
2019-05-30T00:19:25.597Z,17.80
2019-05-30T00:21:54.682Z,18.10
2019-05-30T00:24:23.503Z,17.90
2019-05-30T00:26:52.399Z,18.30
2019-05-30T00:29:21.060Z,18.30
2019-05-30T00:31:49.777Z,18.00
2019-05-30T00:34:18.647Z,18.20
2019-05-30T00:36:47.344Z,18.40
2019-05-30T00:39:16.039Z,18.00
2019-05-30T00:41:44.755Z,18.10
2019-05-30T00:44:13.444Z,18.30
2019-05-30T00:46:42.214Z,18.00
2019-05-30T00:49:10.999Z,18.00
2019-05-30T00:51:39.748Z,18.00
2019-05-30T00:54:08.543Z,18.20
2019-05-30T00:56:37.269Z,18.20
2019-05-30T00:59:06.966Z,18.20
2019-05-30T01:01:35.715Z,18.20
2019-05-30T01:04:04.968Z,18.00
2019-05-30T01:06:33.740Z,18.10
2019-05-30T01:09:03.178Z,18.20
2019-05-30T01:11:31.939Z,18.20
2019-05-30T01:14:01.125Z,18.30
2019-05-30T01:16:30.092Z,18.10
2019-05-30T01:18:59.062Z,18.20
2019-05-30T01:21:29.367Z,18.10
2019-05-30T01:23:59.280Z,18.20
2019-05-30T01:26:28.116Z,18.20
2019-05-30T01:28:57.295Z,17.90
2019-05-30T01:31:26.070Z,18.20
2019-05-30T01:33:55.115Z,18.30
2019-05-30T01:36:23.998Z,18.10
2019-05-30T01:38:52.729Z,18.20
2019-05-30T01:41:21.486Z,18.10
2019-05-30T01:43:50.154Z,18.10
2019-05-30T01:46:18.880Z,18.10
2019-05-30T01:48:47.539Z,17.90
2019-05-30T01:51:16.271Z,18.10
2019-05-30T01:53:44.938Z,17.90
2019-05-30T01:56:13.649Z,18.20
2019-05-30T01:58:42.335Z,18.20
2019-05-30T02:01:22.337Z,18.10
2019-05-30T02:03:41.759Z,17.90
2019-05-30T02:06:10.463Z,18.10
2019-05-30T02:08:39.135Z,18.20
2019-05-30T02:11:07.830Z,18.20
2019-05-30T02:13:36.512Z,18.00
2019-05-30T02:16:05.854Z,18.20
2019-05-30T02:18:34.800Z,18.10
2019-05-30T02:21:03.783Z,18.00
2019-05-30T02:23:33.347Z,18.00
2019-05-30T02:26:02.450Z,18.00
2019-05-30T02:28:31.114Z,18.00
2019-05-30T02:31:00.515Z,17.90
2019-05-30T02:33:29.302Z,18.00
2019-05-30T02:35:58.633Z,17.90
2019-05-30T02:38:27.295Z,18.00
2019-05-30T02:40:56.253Z,18.10
2019-05-30T02:43:25.154Z,17.80
2019-05-30T02:45:53.879Z,17.90
2019-05-30T02:48:22.607Z,18.10
2019-05-30T02:50:51.342Z,18.00
2019-05-30T02:53:20.048Z,17.70
2019-05-30T02:55:48.821Z,18.10
2019-05-30T02:58:17.537Z,17.90
2019-05-30T03:00:46.302Z,17.60
2019-05-30T03:03:15.066Z,17.80
2019-05-30T03:05:44.170Z,17.80
2019-05-30T03:08:14.480Z,17.90
2019-05-30T03:10:43.572Z,18.20
2019-05-30T03:13:12.873Z,17.90
2019-05-30T03:15:42.001Z,17.70
2019-05-30T03:18:12.797Z,18.00
2019-05-30T03:20:41.258Z,17.90
2019-05-30T03:23:10.525Z,17.90
2019-05-30T03:25:40.577Z,17.80
2019-05-30T03:28:11.213Z,17.80
2019-05-30T03:30:39.706Z,18.00
2019-05-30T03:33:26.661Z,17.80
2019-05-30T03:35:42.863Z,17.80
2019-05-30T03:38:12.465Z,18.00
2019-05-30T03:40:40.046Z,17.90
2019-05-30T03:43:11.130Z,18.00
2019-05-30T03:45:40.514Z,18.10
2019-05-30T03:48:13.633Z,17.80
2019-05-30T03:50:45.410Z,17.80
2019-05-30T03:53:16.252Z,17.80
2019-05-30T03:55:48.191Z,17.70
2019-05-30T03:58:45.722Z,17.80
2019-05-30T04:01:18.639Z,17.50
2019-05-30T04:04:09.855Z,17.60
2019-05-30T04:06:42.062Z,17.70
2019-05-30T04:09:19.420Z,17.60
2019-05-30T04:12:02.267Z,17.80
2019-05-30T04:14:33.885Z,17.70
2019-05-30T04:17:02.597Z,17.70
2019-05-30T04:19:31.586Z,17.70
2019-05-30T04:22:00.274Z,17.90
2019-05-30T04:24:29.004Z,17.60
2019-05-30T04:26:57.751Z,17.70
2019-05-30T04:29:26.443Z,17.70
2019-05-30T04:31:55.155Z,17.60
2019-05-30T04:34:23.833Z,17.90
2019-05-30T04:36:53.616Z,17.70
2019-05-30T04:39:22.604Z,17.70
2019-05-30T04:41:51.322Z,17.70
2019-05-30T04:44:20.443Z,18.10
2019-05-30T04:46:49.317Z,17.80
2019-05-30T04:49:20.946Z,17.70
2019-05-30T04:51:48.433Z,17.80
2019-05-30T04:54:18.998Z,17.80
2019-05-30T04:56:47.587Z,17.60
2019-05-30T04:59:17.493Z,17.90
2019-05-30T05:01:47.880Z,17.60
2019-05-30T05:04:17.718Z,17.90
2019-05-30T05:06:46.984Z,17.80
2019-05-30T05:09:16.130Z,17.80
2019-05-30T05:11:45.071Z,18.10
2019-05-30T05:14:14.356Z,17.90
2019-05-30T05:16:43.222Z,18.00
2019-05-30T05:19:12.886Z,18.10
2019-05-30T05:21:41.816Z,18.10
2019-05-30T05:24:10.709Z,18.10
2019-05-30T05:26:39.420Z,18.00
2019-05-30T05:29:08.086Z,18.00
2019-05-30T05:31:37.011Z,18.20
2019-05-30T05:34:05.935Z,18.30
2019-05-30T05:36:34.723Z,18.20
2019-05-30T05:39:04.538Z,18.10
2019-05-30T05:41:33.215Z,18.10
2019-05-30T05:44:01.888Z,18.20
2019-05-30T05:46:30.575Z,18.40
2019-05-30T05:48:59.280Z,18.40
2019-05-30T05:51:29.055Z,18.20
2019-05-30T05:53:57.935Z,18.20
2019-05-30T05:56:26.782Z,18.30
2019-05-30T05:58:55.487Z,18.30
2019-05-30T06:01:25.432Z,18.40
2019-05-30T06:03:54.327Z,18.30
2019-05-30T06:06:23.445Z,18.60
2019-05-30T06:08:52.272Z,18.60
2019-05-30T06:11:21.063Z,18.60
2019-05-30T06:13:49.797Z,18.30
2019-05-30T06:16:19.670Z,18.20
2019-05-30T06:18:48.777Z,18.40
2019-05-30T06:21:17.442Z,18.10
2019-05-30T06:23:46.317Z,18.40
2019-05-30T06:26:15.146Z,18.30
2019-05-30T06:28:43.860Z,18.40
2019-05-30T06:31:12.519Z,18.40
2019-05-30T06:33:41.186Z,18.40
2019-05-30T06:36:09.890Z,18.40
2019-05-30T06:38:38.619Z,18.30
2019-05-30T06:41:07.292Z,18.50
2019-05-30T06:43:36.190Z,18.30
2019-05-30T06:46:04.896Z,18.30
2019-05-30T06:48:33.667Z,18.60
2019-05-30T06:51:02.468Z,18.30
2019-05-30T06:53:31.462Z,18.40
2019-05-30T06:56:00.428Z,18.50
2019-05-30T06:58:47.365Z,18.60
2019-05-30T07:00:59.544Z,18.30
2019-05-30T07:03:28.523Z,18.50
2019-05-30T07:05:58.016Z,18.30
2019-05-30T07:08:27.012Z,18.50
2019-05-30T07:10:55.661Z,18.40
2019-05-30T07:13:25.222Z,18.50
2019-05-30T07:15:54.081Z,18.60
2019-05-30T07:18:23.440Z,18.60
2019-05-30T07:20:52.269Z,18.50
2019-05-30T07:23:20.947Z,18.60
2019-05-30T07:25:49.650Z,18.50
2019-05-30T07:28:37.586Z,18.60
2019-05-30T07:31:06.294Z,18.60
2019-05-30T07:33:34.987Z,18.90
2019-05-30T07:36:03.774Z,19.00
2019-05-30T07:38:32.713Z,18.70
2019-05-30T07:41:01.622Z,18.80
2019-05-30T07:43:31.771Z,18.70
2019-05-30T07:46:00.929Z,18.70
2019-05-30T07:48:30.194Z,18.50
2019-05-30T07:50:59.024Z,18.80
2019-05-30T07:53:28.655Z,18.90
2019-05-30T07:55:57.635Z,18.60
2019-05-30T07:58:27.007Z,18.70
2019-05-30T08:00:57.307Z,18.60
2019-05-30T08:03:26.447Z,18.60
2019-05-30T08:05:55.260Z,18.50
2019-05-30T08:08:23.979Z,19.00
2019-05-30T08:11:07.997Z,18.90
2019-05-30T08:13:23.063Z,18.80
2019-05-30T08:15:51.758Z,18.90
2019-05-30T08:18:20.418Z,18.80
2019-05-30T08:20:49.119Z,19.10
2019-05-30T08:23:17.779Z,18.90
2019-05-30T08:25:46.528Z,18.90
2019-05-30T08:28:15.301Z,18.90
2019-05-30T08:30:43.968Z,19.00
2019-05-30T08:33:12.679Z,19.00
2019-05-30T08:35:49.155Z,19.10
2019-05-30T08:38:11.824Z,18.90
2019-05-30T08:40:40.726Z,18.90
2019-05-30T08:43:09.780Z,19.10
2019-05-30T08:45:38.464Z,19.10
2019-05-30T08:48:07.200Z,19.00
2019-05-30T08:50:42.607Z,18.90
2019-05-30T08:53:08.865Z,19.00
2019-05-30T08:55:38.582Z,18.90
2019-05-30T08:58:07.566Z,19.10
2019-05-30T09:00:36.543Z,19.00
2019-05-30T09:03:05.575Z,19.00
2019-05-30T09:05:35.835Z,19.00
2019-05-30T09:08:05.015Z,19.10
2019-05-30T09:10:33.695Z,19.20
2019-05-30T09:13:02.429Z,19.50
2019-05-30T09:15:32.820Z,19.40
2019-05-30T09:18:01.548Z,19.30
2019-05-30T09:20:30.933Z,19.50
2019-05-30T09:23:00.007Z,19.50
2019-05-30T09:25:28.794Z,19.60
2019-05-30T09:27:57.505Z,19.60
2019-05-30T09:30:26.251Z,19.80
2019-05-30T09:32:54.947Z,19.40
2019-05-30T09:35:23.838Z,19.70
2019-05-30T09:37:52.577Z,19.70
2019-05-30T09:40:23.456Z,19.80
2019-05-30T09:42:52.322Z,19.80
2019-05-30T09:45:23.084Z,19.80
2019-05-30T09:47:51.815Z,19.70
2019-05-30T09:50:23.708Z,19.80
2019-05-30T09:52:52.432Z,19.80
2019-05-30T09:55:21.573Z,20.00
2019-05-30T09:57:51.562Z,20.30
2019-05-30T10:00:22.733Z,19.90
2019-05-30T10:03:03.085Z,19.80
2019-05-30T10:05:31.791Z,20.00
2019-05-30T10:08:00.473Z,20.10
2019-05-30T10:10:30.837Z,20.10
2019-05-30T10:12:59.525Z,20.30
2019-05-30T10:15:28.244Z,20.20
2019-05-30T10:17:57.083Z,20.20
2019-05-30T10:20:26.196Z,20.30
2019-05-30T10:22:54.962Z,20.40
2019-05-30T10:25:23.877Z,20.40
2019-05-30T10:27:54.662Z,20.60
2019-05-30T10:30:25.727Z,20.70
2019-05-30T10:32:55.858Z,20.70
2019-05-30T10:35:24.904Z,20.60
2019-05-30T10:37:53.661Z,20.70
2019-05-30T10:40:22.643Z,20.70
2019-05-30T10:42:53.099Z,20.60
2019-05-30T10:45:24.616Z,20.60
2019-05-30T10:47:53.971Z,20.70
2019-05-30T10:50:23.151Z,20.50
2019-05-30T10:52:51.863Z,20.40
2019-05-30T10:55:21.326Z,20.40
2019-05-30T10:57:51.728Z,20.40
2019-05-30T11:00:21.602Z,20.40
2019-05-30T11:02:51.239Z,20.40
2019-05-30T11:05:20.579Z,20.50
2019-05-30T11:08:03.927Z,20.50
2019-05-30T11:10:34.403Z,20.40
2019-05-30T11:13:05.921Z,20.40
2019-05-30T11:15:33.534Z,20.40
2019-05-30T11:18:02.234Z,20.40
2019-05-30T11:20:30.936Z,20.40
2019-05-30T11:22:59.616Z,20.40
2019-05-30T11:25:28.405Z,20.40
2019-05-30T11:27:57.108Z,20.40
2019-05-30T11:30:25.948Z,20.30
2019-05-30T11:32:55.228Z,20.30
2019-05-30T11:35:24.005Z,20.30
2019-05-30T11:37:53.122Z,20.30
2019-05-30T11:40:21.977Z,20.40
2019-05-30T11:42:51.201Z,20.40
2019-05-30T11:45:20.418Z,20.30
2019-05-30T11:47:49.562Z,20.40
2019-05-30T11:50:19.611Z,20.40
2019-05-30T11:52:49.731Z,20.50
2019-05-30T11:55:18.806Z,20.50
2019-05-30T11:57:47.584Z,20.50
2019-05-30T12:00:16.839Z,20.50
2019-05-30T12:02:48.013Z,20.50
2019-05-30T12:05:17.417Z,20.50
2019-05-30T12:07:46.133Z,20.60
2019-05-30T12:10:15.895Z,20.60
2019-05-30T12:12:44.608Z,20.60
2019-05-30T12:15:13.794Z,20.70
2019-05-30T12:17:43.027Z,20.80
2019-05-30T12:20:11.906Z,20.90
2019-05-30T12:22:40.605Z,20.90
2019-05-30T12:25:09.708Z,21.00
2019-05-30T12:27:38.401Z,21.00
2019-05-30T12:30:10.999Z,21.10
2019-05-30T12:32:39.663Z,21.20
2019-05-30T12:35:09.468Z,21.10
2019-05-30T12:37:53.296Z,21.20
2019-05-30T12:40:09.329Z,21.20
2019-05-30T12:42:38.150Z,21.30
2019-05-30T12:45:08.319Z,21.20
2019-05-30T12:47:36.986Z,21.20
2019-05-30T12:50:08.070Z,21.10
2019-05-30T12:52:36.745Z,21.10
2019-05-30T12:55:11.966Z,21.00
2019-05-30T12:57:40.838Z,21.00
2019-05-30T13:00:21.662Z,20.90
2019-05-30T13:02:50.391Z,20.90
2019-05-30T13:05:19.285Z,21.00
2019-05-30T13:07:47.959Z,21.00
2019-05-30T13:10:17.269Z,21.10
2019-05-30T13:12:45.944Z,21.10
2019-05-30T13:15:15.029Z,21.10
2019-05-30T13:17:43.781Z,21.20
2019-05-30T13:20:13.715Z,21.20
2019-05-30T13:22:43.302Z,21.20
2019-05-30T13:25:15.405Z,21.20
2019-05-30T13:27:44.104Z,21.30
2019-05-30T13:30:13.505Z,21.30
2019-05-30T13:32:42.168Z,21.30
2019-05-30T13:35:11.396Z,21.30
2019-05-30T13:37:40.150Z,21.20
2019-05-30T13:40:24.149Z,21.30
2019-05-30T13:42:41.363Z,21.30
2019-05-30T13:45:10.865Z,21.30
2019-05-30T13:47:39.689Z,21.40
2019-05-30T13:50:13.130Z,21.40
2019-05-30T13:52:39.702Z,21.30
2019-05-30T13:55:10.258Z,21.30
2019-05-30T13:57:39.298Z,21.30
2019-05-30T14:00:13.947Z,21.30
2019-05-30T14:02:42.692Z,21.20
2019-05-30T14:05:12.225Z,21.20
2019-05-30T14:07:40.951Z,21.20
2019-05-30T14:10:10.854Z,21.10
2019-05-30T14:12:39.782Z,21.10
2019-05-30T14:15:13.763Z,21.10
2019-05-30T14:17:40.798Z,21.20
2019-05-30T14:20:11.208Z,21.30
2019-05-30T14:22:40.195Z,21.30
2019-05-30T14:25:09.957Z,21.30
2019-05-30T14:27:38.979Z,21.30
2019-05-30T14:30:09.079Z,21.20
2019-05-30T14:32:37.959Z,21.20
2019-05-30T14:35:11.749Z,21.20
2019-05-30T14:37:40.607Z,21.20
2019-05-30T14:40:11.282Z,21.10
2019-05-30T14:42:40.286Z,21.10
2019-05-30T14:45:10.605Z,21.10
2019-05-30T14:47:40.216Z,21.10
2019-05-30T14:50:11.042Z,21.20
2019-05-30T14:52:40.209Z,21.30
2019-05-30T14:55:13.086Z,21.40
2019-05-30T14:57:42.224Z,21.40
2019-05-30T15:00:17.721Z,21.30
2019-05-30T15:02:46.599Z,21.30
2019-05-30T15:05:15.883Z,21.30
2019-05-30T15:07:44.856Z,21.40
2019-05-30T15:10:16.821Z,21.50
2019-05-30T15:12:45.978Z,21.60
2019-05-30T15:15:18.216Z,21.70
2019-05-30T15:17:45.888Z,21.60
2019-05-30T15:20:19.524Z,21.60
2019-05-30T15:22:49.890Z,21.60
2019-05-30T15:25:19.135Z,21.70
2019-05-30T15:27:47.917Z,21.70
2019-05-30T15:30:17.522Z,21.70
2019-05-30T15:32:46.194Z,21.50
2019-05-30T15:35:15.586Z,21.50
2019-05-30T15:37:45.055Z,21.50
2019-05-30T15:40:15.528Z,21.50
2019-05-30T15:42:44.215Z,21.50
2019-05-30T15:45:16.085Z,21.60
2019-05-30T15:47:44.845Z,21.60
2019-05-30T15:50:15.455Z,21.60
2019-05-30T15:52:45.283Z,21.70
2019-05-30T15:55:15.199Z,21.80
2019-05-30T15:57:44.226Z,21.80
2019-05-30T16:00:15.967Z,21.80
2019-05-30T16:02:45.107Z,21.80
2019-05-30T16:05:14.655Z,21.80
2019-05-30T16:07:43.449Z,21.80
2019-05-30T16:10:19.151Z,21.90
2019-05-30T16:12:47.888Z,22.00
2019-05-30T16:15:17.588Z,22.00
2019-05-30T16:17:46.451Z,22.00
2019-05-30T16:20:15.936Z,22.20
2019-05-30T16:22:44.826Z,22.30
2019-05-30T16:25:13.833Z,22.40
2019-05-30T16:27:42.670Z,22.50
2019-05-30T16:30:12.414Z,22.60
2019-05-30T16:32:42.246Z,22.60
2019-05-30T16:35:11.487Z,22.70
2019-05-30T16:37:40.232Z,22.70
2019-05-30T16:40:11.408Z,22.70
2019-05-30T16:42:40.113Z,22.60
2019-05-30T16:45:10.133Z,22.50
2019-05-30T16:47:39.085Z,22.60
2019-05-30T16:50:09.780Z,22.60
2019-05-30T16:52:39.286Z,22.70
2019-05-30T16:55:09.657Z,22.80
2019-05-30T16:57:38.373Z,22.80
2019-05-30T17:00:08.882Z,22.70
2019-05-30T17:02:37.621Z,22.70
2019-05-30T17:05:07.449Z,22.70
2019-05-30T17:07:37.641Z,22.70
2019-05-30T17:10:21.604Z,22.70
2019-05-30T17:12:38.350Z,22.80
2019-05-30T17:15:10.510Z,22.90
2019-05-30T17:17:39.387Z,22.90
2019-05-30T17:20:09.990Z,22.90
2019-05-30T17:22:39.856Z,22.80
2019-05-30T17:25:09.447Z,22.80
2019-05-30T17:27:38.251Z,22.70
2019-05-30T17:30:08.298Z,22.70
2019-05-30T17:32:36.987Z,22.60
2019-05-30T17:35:09.939Z,22.50
2019-05-30T17:37:38.863Z,22.50
2019-05-30T17:40:10.718Z,22.40
2019-05-30T17:42:39.365Z,22.50
2019-05-30T17:45:13.015Z,22.50
2019-05-30T17:47:41.730Z,22.40
2019-05-30T17:50:12.416Z,22.40
2019-05-30T17:52:41.441Z,22.50
2019-05-30T17:55:10.743Z,22.40
2019-05-30T17:57:39.448Z,22.30
2019-05-30T18:00:10.632Z,22.50
2019-05-30T18:02:40.009Z,22.60
2019-05-30T18:05:09.067Z,22.60
2019-05-30T18:07:37.771Z,22.70
2019-05-30T18:10:07.794Z,22.70
2019-05-30T18:12:36.498Z,22.70
2019-05-30T18:15:11.508Z,22.70
2019-05-30T18:17:41.952Z,22.70
2019-05-30T18:20:11.432Z,22.60
2019-05-30T18:22:40.155Z,22.60
2019-05-30T18:25:10.447Z,22.50
2019-05-30T18:27:39.112Z,22.50
2019-05-30T18:30:09.234Z,22.50
2019-05-30T18:32:37.916Z,22.50
2019-05-30T18:35:07.536Z,22.50
2019-05-30T18:37:37.143Z,22.50
2019-05-30T18:40:07.215Z,22.50
2019-05-30T18:42:36.551Z,22.50
2019-05-30T18:45:08.023Z,22.50
2019-05-30T18:47:37.067Z,22.50
2019-05-30T18:50:07.484Z,22.50
2019-05-30T18:52:36.849Z,22.50
2019-05-30T18:55:07.765Z,22.60
2019-05-30T18:57:37.342Z,22.60
2019-05-30T19:00:10.190Z,22.60
2019-05-30T19:02:39.749Z,22.60
2019-05-30T19:05:09.001Z,22.60
2019-05-30T19:07:37.723Z,22.70
2019-05-30T19:10:06.731Z,22.60
2019-05-30T19:12:36.564Z,22.60
2019-05-30T19:15:07.033Z,22.60
2019-05-30T19:17:35.965Z,22.60
2019-05-30T19:20:06.867Z,22.60
2019-05-30T19:22:36.460Z,22.60
2019-05-30T19:25:07.883Z,22.60
2019-05-30T19:27:38.346Z,22.60
2019-05-30T19:30:09.171Z,22.60
2019-05-30T19:32:37.863Z,22.60
2019-05-30T19:35:10.274Z,22.50
2019-05-30T19:37:39.172Z,22.50
2019-05-30T19:40:09.649Z,22.60
2019-05-30T19:42:42.300Z,22.50
2019-05-30T19:45:15.252Z,22.40
2019-05-30T19:47:50.470Z,22.40
2019-05-30T19:50:22.376Z,22.40
2019-05-30T19:52:51.631Z,22.40
2019-05-30T19:55:21.554Z,22.40
2019-05-30T19:57:50.519Z,22.30
2019-05-30T20:00:19.805Z,22.30
2019-05-30T20:02:48.486Z,22.30
2019-05-30T20:05:17.398Z,22.30
2019-05-30T20:07:46.064Z,22.20
2019-05-30T20:10:15.489Z,22.30
2019-05-30T20:12:44.167Z,22.30
2019-05-30T20:15:14.639Z,22.20
2019-05-30T20:17:43.387Z,22.20
2019-05-30T20:20:12.481Z,22.20
2019-05-30T20:22:42.248Z,22.10
2019-05-30T20:25:13.010Z,22.10
2019-05-30T20:27:42.952Z,22.20
2019-05-30T20:30:12.863Z,22.20
2019-05-30T20:32:41.904Z,22.10
2019-05-30T20:35:12.729Z,22.00
2019-05-30T20:37:42.799Z,22.00
2019-05-30T20:40:13.983Z,22.00
2019-05-30T20:42:43.063Z,22.00
2019-05-30T20:45:12.855Z,22.00
2019-05-30T20:47:43.010Z,21.90
2019-05-30T20:50:15.093Z,21.90
2019-05-30T20:52:45.703Z,21.90
2019-05-30T20:55:16.266Z,21.90
2019-05-30T20:57:45.173Z,21.80
2019-05-30T21:00:15.201Z,21.90
2019-05-30T21:02:43.919Z,21.90
2019-05-30T21:05:13.896Z,21.90
2019-05-30T21:07:44.235Z,21.90
2019-05-30T21:10:13.691Z,21.90
2019-05-30T21:12:46.991Z,21.90
2019-05-30T21:15:15.283Z,21.80
2019-05-30T21:17:46.066Z,21.90
2019-05-30T21:20:15.450Z,21.90
2019-05-30T21:22:44.651Z,21.80
2019-05-30T21:25:14.094Z,21.90
2019-05-30T21:27:43.039Z,21.80
2019-05-30T21:30:13.485Z,21.80
2019-05-30T21:32:43.645Z,21.70
2019-05-30T21:35:13.792Z,21.60
2019-05-30T21:37:43.643Z,21.60
2019-05-30T21:40:13.406Z,21.70
2019-05-30T21:42:58.176Z,21.70
2019-05-30T21:45:12.826Z,21.70
2019-05-30T21:47:42.657Z,21.70
2019-05-30T21:50:11.719Z,21.70
2019-05-30T21:52:41.538Z,21.70
2019-05-30T21:55:10.411Z,21.70
2019-05-30T21:57:39.814Z,21.60
2019-05-30T22:00:14.201Z,21.60
2019-05-30T22:02:46.621Z,21.50
2019-05-30T22:05:15.487Z,21.50
2019-05-30T22:07:45.042Z,21.50
2019-05-30T22:10:13.908Z,21.50
2019-05-30T22:12:43.411Z,21.40
2019-05-30T22:15:12.271Z,21.40
2019-05-30T22:17:41.721Z,21.40
2019-05-30T22:20:10.470Z,21.40
2019-05-30T22:22:39.265Z,21.40
2019-05-30T22:25:08.021Z,21.40
2019-05-30T22:27:36.782Z,21.40
2019-05-30T22:30:07.065Z,21.40
2019-05-30T22:32:35.797Z,21.30
2019-05-30T22:35:06.273Z,21.30
2019-05-30T22:37:34.987Z,21.30
2019-05-30T22:40:07.205Z,21.30
2019-05-30T22:42:36.043Z,21.20
2019-05-30T22:45:09.328Z,21.20
2019-05-30T22:47:38.016Z,21.20
2019-05-30T22:50:07.648Z,21.20
2019-05-30T22:52:37.783Z,21.20
2019-05-30T22:55:06.777Z,21.30
2019-05-30T22:57:35.460Z,21.30
2019-05-30T23:00:06.457Z,21.30
2019-05-30T23:02:35.139Z,21.30
2019-05-30T23:05:04.915Z,21.30
2019-05-30T23:07:33.615Z,21.20
2019-05-30T23:10:02.277Z,21.20
2019-05-30T23:12:31.027Z,21.20
2019-05-30T23:14:59.768Z,21.20
2019-05-30T23:17:28.610Z,21.20
2019-05-30T23:19:57.291Z,21.20
2019-05-30T23:22:26.006Z,21.20
2019-05-30T23:24:55.555Z,21.30
2019-05-30T23:27:24.347Z,21.30
2019-05-30T23:29:53.910Z,21.40
2019-05-30T23:32:22.899Z,21.40
2019-05-30T23:34:52.219Z,21.40
2019-05-30T23:37:21.109Z,21.40
2019-05-30T23:39:50.709Z,21.40
2019-05-30T23:42:19.646Z,21.40
2019-05-30T23:44:49.097Z,21.40
2019-05-30T23:47:17.994Z,21.40
2019-05-30T23:49:46.937Z,21.50
2019-05-30T23:52:15.633Z,21.50
2019-05-30T23:54:44.621Z,21.40
2019-05-30T23:57:13.714Z,21.40
2019-05-30T23:59:42.390Z,21.40
